Wye Mills, Maryland
Current Conditions -  °F | °C
As of 1:09 AM on Saturday 20 Dec 2014 (Local Time) from KESN Reporting Station
Clear Clear  
Wind Chill: 25°   Ceiling: Unl
Heat Index: 31°   Visibility: 10mi
Dew Point: 27°   Wind: 6mph
Humidity: 84%   Direction: 350°N
Pressure: 30.26"   Gusts: NA
Location:  38.94°N, 76.08°W
Report Text: KESN 200609Z AUTO 35005KT 10SM CLR 00/M03 A3026 RMK AO2 T10051029
Loading
Personal Weather Stations






























Interactive Weather Map New forecast layout! Learn more

10-Day Weather Forecast

Advertisements
Track Severe Weather on mobile